sensor_id;sensor_type;location;lat;lon;timestamp;pressure;altitude;pressure_sealevel;temperature;humidity
20930;BME280;21895;47.072;15.132;2023-03-25T00:02:22;96099.00;;;12.81;78.83
20930;BME280;21895;47.072;15.132;2023-03-25T00:04:51;96109.00;;;12.72;79.11
20930;BME280;21895;47.072;15.132;2023-03-25T00:07:20;96100.00;;;12.78;78.49
20930;BME280;21895;47.072;15.132;2023-03-25T00:09:47;96101.00;;;12.69;78.77
20930;BME280;21895;47.072;15.132;2023-03-25T00:12:15;96097.00;;;12.63;79.12
20930;BME280;21895;47.072;15.132;2023-03-25T00:14:44;96106.00;;;12.64;79.27
20930;BME280;21895;47.072;15.132;2023-03-25T00:17:21;96108.00;;;12.60;79.11
20930;BME280;21895;47.072;15.132;2023-03-25T00:19:48;96110.00;;;12.58;79.48
20930;BME280;21895;47.072;15.132;2023-03-25T00:22:18;96091.00;;;12.51;79.87
20930;BME280;21895;47.072;15.132;2023-03-25T00:24:45;96112.00;;;12.66;79.49
20930;BME280;21895;47.072;15.132;2023-03-25T00:27:12;96109.00;;;12.89;78.13
20930;BME280;21895;47.072;15.132;2023-03-25T00:29:40;96106.00;;;12.65;79.01
20930;BME280;21895;47.072;15.132;2023-03-25T00:32:10;96105.00;;;12.53;79.42
20930;BME280;21895;47.072;15.132;2023-03-25T00:34:37;96099.00;;;12.63;79.20
20930;BME280;21895;47.072;15.132;2023-03-25T00:37:09;96093.00;;;12.55;79.10
20930;BME280;21895;47.072;15.132;2023-03-25T00:39:36;96091.00;;;12.44;79.61
20930;BME280;21895;47.072;15.132;2023-03-25T00:42:04;96098.00;;;12.38;80.04
20930;BME280;21895;47.072;15.132;2023-03-25T00:44:30;96091.00;;;12.49;79.71
20930;BME280;21895;47.072;15.132;2023-03-25T00:46:57;96088.00;;;12.51;79.31
20930;BME280;21895;47.072;15.132;2023-03-25T00:49:24;96088.00;;;12.64;78.56
20930;BME280;21895;47.072;15.132;2023-03-25T00:51:51;96092.00;;;12.51;78.86
20930;BME280;21895;47.072;15.132;2023-03-25T00:54:20;96089.00;;;12.48;79.00
20930;BME280;21895;47.072;15.132;2023-03-25T00:56:48;96081.00;;;12.48;78.56
20930;BME280;21895;47.072;15.132;2023-03-25T00:59:15;96083.00;;;12.39;78.35
20930;BME280;21895;47.072;15.132;2023-03-25T01:01:41;96093.00;;;12.20;79.19
20930;BME280;21895;47.072;15.132;2023-03-25T01:04:08;96090.00;;;12.25;79.32
20930;BME280;21895;47.072;15.132;2023-03-25T01:06:40;96097.00;;;12.24;79.24
20930;BME280;21895;47.072;15.132;2023-03-25T01:09:12;96094.00;;;12.25;79.32
20930;BME280;21895;47.072;15.132;2023-03-25T01:11:42;96097.00;;;12.31;79.28
20930;BME280;21895;47.072;15.132;2023-03-25T01:14:19;96102.00;;;12.30;79.14
20930;BME280;21895;47.072;15.132;2023-03-25T01:16:46;96098.00;;;12.18;80.07
20930;BME280;21895;47.072;15.132;2023-03-25T01:19:14;96096.00;;;12.23;80.08
20930;BME280;21895;47.072;15.132;2023-03-25T01:21:41;96078.00;;;12.30;79.77
20930;BME280;21895;47.072;15.132;2023-03-25T01:24:12;96063.00;;;12.33;78.78
20930;BME280;21895;47.072;15.132;2023-03-25T01:26:39;96055.00;;;12.20;79.54
20930;BME280;21895;47.072;15.132;2023-03-25T01:29:07;96056.00;;;12.05;80.51
20930;BME280;21895;47.072;15.132;2023-03-25T01:31:33;96060.00;;;12.14;80.26
20930;BME280;21895;47.072;15.132;2023-03-25T01:34:00;96030.00;;;12.05;80.60
20930;BME280;21895;47.072;15.132;2023-03-25T01:36:26;96027.00;;;12.14;80.34
20930;BME280;21895;47.072;15.132;2023-03-25T01:38:58;96021.00;;;12.01;80.61
20930;BME280;21895;47.072;15.132;2023-03-25T01:41:26;96016.00;;;12.15;79.94
20930;BME280;21895;47.072;15.132;2023-03-25T01:45:42;96005.00;;;12.12;80.03
20930;BME280;21895;47.072;15.132;2023-03-25T01:49:18;95994.00;;;12.30;78.90
20930;BME280;21895;47.072;15.132;2023-03-25T01:51:54;96000.00;;;12.10;79.49
20930;BME280;21895;47.072;15.132;2023-03-25T01:54:21;95992.00;;;12.05;80.23
20930;BME280;21895;47.072;15.132;2023-03-25T01:56:49;96007.00;;;12.04;80.35
20930;BME280;21895;47.072;15.132;2023-03-25T01:59:22;95990.00;;;12.19;79.66
20930;BME280;21895;47.072;15.132;2023-03-25T02:01:50;96011.00;;;12.20;79.77
20930;BME280;21895;47.072;15.132;2023-03-25T02:04:32;95992.00;;;12.20;79.43
20930;BME280;21895;47.072;15.132;2023-03-25T02:07:05;95969.00;;;12.01;80.87
20930;BME280;21895;47.072;15.132;2023-03-25T02:09:33;96005.00;;;11.96;80.69
20930;BME280;21895;47.072;15.132;2023-03-25T02:12:00;95976.00;;;11.78;81.66
20930;BME280;21895;47.072;15.132;2023-03-25T02:14:33;95992.00;;;11.90;82.11
20930;BME280;21895;47.072;15.132;2023-03-25T02:17:58;95991.00;;;12.21;80.26
20930;BME280;21895;47.072;15.132;2023-03-25T02:28:47;95994.00;;;11.86;80.76
20930;BME280;21895;47.072;15.132;2023-03-25T02:43:40;96000.00;;;11.90;79.55
20930;BME280;21895;47.072;15.132;2023-03-25T02:46:16;95998.00;;;11.84;79.04
20930;BME280;21895;47.072;15.132;2023-03-25T02:49:24;95992.00;;;11.91;79.17
20930;BME280;21895;47.072;15.132;2023-03-25T02:52:09;96008.00;;;11.85;79.79
20930;BME280;21895;47.072;15.132;2023-03-25T02:54:39;96006.00;;;11.83;78.90
20930;BME280;21895;47.072;15.132;2023-03-25T02:57:11;96021.00;;;11.76;78.52
20930;BME280;21895;47.072;15.132;2023-03-25T02:59:40;96014.00;;;11.78;78.78
20930;BME280;21895;47.072;15.132;2023-03-25T03:02:09;96017.00;;;11.70;79.24
20930;BME280;21895;47.072;15.132;2023-03-25T03:04:48;96021.00;;;11.79;78.78
20930;BME280;21895;47.072;15.132;2023-03-25T03:07:29;96026.00;;;11.72;79.27
20930;BME280;21895;47.072;15.132;2023-03-25T03:10:22;96014.00;;;11.71;79.45
20930;BME280;21895;47.072;15.132;2023-03-25T03:16:58;96016.00;;;11.70;79.65
20930;BME280;21895;47.072;15.132;2023-03-25T03:19:44;96004.00;;;12.01;77.96
20930;BME280;21895;47.072;15.132;2023-03-25T03:22:45;96015.00;;;11.57;79.54
20930;BME280;21895;47.072;15.132;2023-03-25T03:26:02;96014.00;;;11.64;79.43
20930;BME280;21895;47.072;15.132;2023-03-25T03:28:49;96023.00;;;11.50;80.08
20930;BME280;21895;47.072;15.132;2023-03-25T03:31:51;96038.00;;;11.53;79.08
20930;BME280;21895;47.072;15.132;2023-03-25T03:35:25;96035.00;;;11.36;80.62
20930;BME280;21895;47.072;15.132;2023-03-25T03:37:59;96034.00;;;11.60;79.59
20930;BME280;21895;47.072;15.132;2023-03-25T03:40:29;96025.00;;;11.42;78.66
20930;BME280;21895;47.072;15.132;2023-03-25T03:43:05;96012.00;;;11.36;78.73
20930;BME280;21895;47.072;15.132;2023-03-25T03:45:47;96029.00;;;11.23;80.30
20930;BME280;21895;47.072;15.132;2023-03-25T03:48:28;96035.00;;;11.17;79.34
20930;BME280;21895;47.072;15.132;2023-03-25T03:51:10;96048.00;;;11.34;79.27
20930;BME280;21895;47.072;15.132;2023-03-25T03:53:49;96049.00;;;11.28;79.61
20930;BME280;21895;47.072;15.132;2023-03-25T03:57:56;96053.00;;;11.29;78.98
20930;BME280;21895;47.072;15.132;2023-03-25T04:00:33;96065.00;;;11.36;77.35
20930;BME280;21895;47.072;15.132;2023-03-25T04:03:13;96069.00;;;11.18;76.76
20930;BME280;21895;47.072;15.132;2023-03-25T04:05:53;96071.00;;;11.09;76.09
20930;BME280;21895;47.072;15.132;2023-03-25T04:08:32;96075.00;;;11.17;76.23
20930;BME280;21895;47.072;15.132;2023-03-25T04:11:18;96070.00;;;11.40;76.10
20930;BME280;21895;47.072;15.132;2023-03-25T04:13:51;96074.00;;;11.15;77.42
20930;BME280;21895;47.072;15.132;2023-03-25T04:16:20;96076.00;;;10.92;78.52
20930;BME280;21895;47.072;15.132;2023-03-25T04:18:47;96081.00;;;10.81;79.46
20930;BME280;21895;47.072;15.132;2023-03-25T04:21:13;96086.00;;;10.79;79.87
20930;BME280;21895;47.072;15.132;2023-03-25T04:23:40;96094.00;;;10.87;79.95
20930;BME280;21895;47.072;15.132;2023-03-25T04:26:08;96096.00;;;11.12;79.10
20930;BME280;21895;47.072;15.132;2023-03-25T04:28:34;96106.00;;;11.05;79.01
20930;BME280;21895;47.072;15.132;2023-03-25T04:31:01;96107.00;;;11.19;78.64
20930;BME280;21895;47.072;15.132;2023-03-25T04:33:30;96099.00;;;11.17;78.59
20930;BME280;21895;47.072;15.132;2023-03-25T04:35:57;96109.00;;;11.10;78.67
20930;BME280;21895;47.072;15.132;2023-03-25T04:38:27;96108.00;;;11.03;78.73
20930;BME280;21895;47.072;15.132;2023-03-25T04:40:53;96115.00;;;11.09;78.44
20930;BME280;21895;47.072;15.132;2023-03-25T04:43:20;96116.00;;;11.06;78.21
20930;BME280;21895;47.072;15.132;2023-03-25T04:45:46;96123.00;;;11.02;78.01
20930;BME280;21895;47.072;15.132;2023-03-25T04:48:26;96123.00;;;11.05;77.35
20930;BME280;21895;47.072;15.132;2023-03-25T04:51:00;96123.00;;;11.07;76.72
20930;BME280;21895;47.072;15.132;2023-03-25T04:53:29;96130.00;;;11.05;76.92
20930;BME280;21895;47.072;15.132;2023-03-25T04:55:56;96135.00;;;11.11;76.90
20930;BME280;21895;47.072;15.132;2023-03-25T04:58:23;96124.00;;;11.03;76.67
20930;BME280;21895;47.072;15.132;2023-03-25T05:00:51;96134.00;;;10.99;77.52
20930;BME280;21895;47.072;15.132;2023-03-25T05:03:19;96139.00;;;10.82;78.25
20930;BME280;21895;47.072;15.132;2023-03-25T05:05:52;96143.00;;;10.84;78.51
20930;BME280;21895;47.072;15.132;2023-03-25T05:08:19;96154.00;;;10.88;78.74
20930;BME280;21895;47.072;15.132;2023-03-25T05:10:49;96154.00;;;10.90;78.15
20930;BME280;21895;47.072;15.132;2023-03-25T05:13:18;96154.00;;;10.91;77.78
20930;BME280;21895;47.072;15.132;2023-03-25T05:15:44;96139.00;;;10.89;77.13
20930;BME280;21895;47.072;15.132;2023-03-25T05:18:14;96140.00;;;11.00;77.44
20930;BME280;21895;47.072;15.132;2023-03-25T05:20:46;96148.00;;;10.82;77.86
20930;BME280;21895;47.072;15.132;2023-03-25T05:23:16;96159.00;;;11.00;77.16
20930;BME280;21895;47.072;15.132;2023-03-25T05:25:49;96152.00;;;10.96;77.26
20930;BME280;21895;47.072;15.132;2023-03-25T05:28:17;96149.00;;;10.85;76.96
20930;BME280;21895;47.072;15.132;2023-03-25T05:30:46;96134.00;;;10.77;77.73
20930;BME280;21895;47.072;15.132;2023-03-25T05:33:15;96133.00;;;10.78;78.08
20930;BME280;21895;47.072;15.132;2023-03-25T05:35:43;96136.00;;;10.75;78.43
20930;BME280;21895;47.072;15.132;2023-03-25T05:38:11;96131.00;;;10.97;77.93
20930;BME280;21895;47.072;15.132;2023-03-25T05:40:39;96124.00;;;10.86;78.49
20930;BME280;21895;47.072;15.132;2023-03-25T05:43:05;96114.00;;;10.73;78.67
20930;BME280;21895;47.072;15.132;2023-03-25T05:45:33;96128.00;;;10.71;79.15
20930;BME280;21895;47.072;15.132;2023-03-25T05:48:03;96143.00;;;10.83;78.73
20930;BME280;21895;47.072;15.132;2023-03-25T05:50:30;96146.00;;;10.86;77.45
20930;BME280;21895;47.072;15.132;2023-03-25T05:52:57;96141.00;;;10.84;77.43
20930;BME280;21895;47.072;15.132;2023-03-25T05:55:25;96131.00;;;10.85;77.28
20930;BME280;21895;47.072;15.132;2023-03-25T05:57:52;96144.00;;;10.95;77.35
20930;BME280;21895;47.072;15.132;2023-03-25T06:00:20;96157.00;;;10.93;76.30
20930;BME280;21895;47.072;15.132;2023-03-25T06:02:49;96165.00;;;10.98;76.28
20930;BME280;21895;47.072;15.132;2023-03-25T06:05:16;96162.00;;;10.95;76.31
20930;BME280;21895;47.072;15.132;2023-03-25T06:07:45;96163.00;;;10.87;76.55
20930;BME280;21895;47.072;15.132;2023-03-25T06:10:14;96167.00;;;10.97;76.36
20930;BME280;21895;47.072;15.132;2023-03-25T06:12:45;96166.00;;;11.06;75.80
20930;BME280;21895;47.072;15.132;2023-03-25T06:15:15;96164.00;;;11.01;76.40
20930;BME280;21895;47.072;15.132;2023-03-25T06:17:55;96168.00;;;11.00;77.03
20930;BME280;21895;47.072;15.132;2023-03-25T06:20:22;96165.00;;;11.14;77.21
20930;BME280;21895;47.072;15.132;2023-03-25T06:22:48;96166.00;;;11.26;76.96
20930;BME280;21895;47.072;15.132;2023-03-25T06:25:18;96162.00;;;11.35;76.85
20930;BME280;21895;47.072;15.132;2023-03-25T06:27:48;96147.00;;;11.47;76.51
20930;BME280;21895;47.072;15.132;2023-03-25T06:30:18;96145.00;;;11.58;75.14
20930;BME280;21895;47.072;15.132;2023-03-25T06:32:46;96143.00;;;11.58;75.47
20930;BME280;21895;47.072;15.132;2023-03-25T06:35:17;96160.00;;;11.62;75.66
20930;BME280;21895;47.072;15.132;2023-03-25T06:37:48;96164.00;;;11.70;75.28
20930;BME280;21895;47.072;15.132;2023-03-25T06:40:15;96157.00;;;11.76;74.51
20930;BME280;21895;47.072;15.132;2023-03-25T06:42:42;96157.00;;;11.74;74.61
20930;BME280;21895;47.072;15.132;2023-03-25T06:45:09;96166.00;;;11.80;73.77
20930;BME280;21895;47.072;15.132;2023-03-25T06:47:36;96164.00;;;11.75;74.01
20930;BME280;21895;47.072;15.132;2023-03-25T06:50:03;96165.00;;;11.72;74.32
20930;BME280;21895;47.072;15.132;2023-03-25T06:52:29;96175.00;;;11.92;74.10
20930;BME280;21895;47.072;15.132;2023-03-25T06:54:56;96180.00;;;11.97;73.36
20930;BME280;21895;47.072;15.132;2023-03-25T06:57:22;96166.00;;;12.14;72.83
20930;BME280;21895;47.072;15.132;2023-03-25T06:59:49;96158.00;;;12.37;71.72
20930;BME280;21895;47.072;15.132;2023-03-25T07:02:16;96161.00;;;12.36;70.99
20930;BME280;21895;47.072;15.132;2023-03-25T07:04:42;96155.00;;;12.23;70.63
20930;BME280;21895;47.072;15.132;2023-03-25T07:07:09;96155.00;;;12.20;70.77
20930;BME280;21895;47.072;15.132;2023-03-25T07:09:36;96171.00;;;12.24;72.28
20930;BME280;21895;47.072;15.132;2023-03-25T07:12:02;96190.00;;;12.59;71.43
20930;BME280;21895;47.072;15.132;2023-03-25T07:14:29;96208.00;;;12.62;71.83
20930;BME280;21895;47.072;15.132;2023-03-25T07:16:55;96216.00;;;12.64;71.35
20930;BME280;21895;47.072;15.132;2023-03-25T07:19:22;96224.00;;;12.49;72.30
20930;BME280;21895;47.072;15.132;2023-03-25T07:21:48;96224.00;;;12.33;73.17
20930;BME280;21895;47.072;15.132;2023-03-25T07:24:15;96211.00;;;12.37;73.19
20930;BME280;21895;47.072;15.132;2023-03-25T07:26:41;96192.00;;;12.47;73.02
20930;BME280;21895;47.072;15.132;2023-03-25T07:29:08;96187.00;;;12.50;72.67
20930;BME280;21895;47.072;15.132;2023-03-25T07:31:34;96184.00;;;12.59;69.25
20930;BME280;21895;47.072;15.132;2023-03-25T07:34:01;96187.00;;;12.54;68.83
20930;BME280;21895;47.072;15.132;2023-03-25T07:36:28;96192.00;;;12.47;69.95
20930;BME280;21895;47.072;15.132;2023-03-25T07:38:54;96199.00;;;12.62;70.54
20930;BME280;21895;47.072;15.132;2023-03-25T07:41:23;96201.00;;;12.85;71.33
20930;BME280;21895;47.072;15.132;2023-03-25T07:43:49;96193.00;;;13.03;70.65
20930;BME280;21895;47.072;15.132;2023-03-25T07:46:16;96193.00;;;13.51;69.59
20930;BME280;21895;47.072;15.132;2023-03-25T07:48:42;96194.00;;;13.50;69.62
20930;BME280;21895;47.072;15.132;2023-03-25T07:51:09;96191.00;;;13.75;68.13
20930;BME280;21895;47.072;15.132;2023-03-25T07:53:35;96189.00;;;13.52;68.48
20930;BME280;21895;47.072;15.132;2023-03-25T07:56:05;96179.00;;;13.35;68.81
20930;BME280;21895;47.072;15.132;2023-03-25T07:58:32;96193.00;;;13.51;67.91
20930;BME280;21895;47.072;15.132;2023-03-25T08:00:59;96182.00;;;13.32;67.39
20930;BME280;21895;47.072;15.132;2023-03-25T08:03:26;96188.00;;;13.15;67.94
20930;BME280;21895;47.072;15.132;2023-03-25T08:05:54;96200.00;;;12.96;70.36
20930;BME280;21895;47.072;15.132;2023-03-25T08:08:21;96192.00;;;12.89;71.82
20930;BME280;21895;47.072;15.132;2023-03-25T08:10:47;96192.00;;;13.09;71.27
20930;BME280;21895;47.072;15.132;2023-03-25T08:13:14;96193.00;;;12.81;71.52
20930;BME280;21895;47.072;15.132;2023-03-25T08:15:40;96189.00;;;12.72;71.35
20930;BME280;21895;47.072;15.132;2023-03-25T08:18:07;96197.00;;;12.75;70.94
20930;BME280;21895;47.072;15.132;2023-03-25T08:20:34;96209.00;;;12.91;71.31
20930;BME280;21895;47.072;15.132;2023-03-25T08:23:01;96231.00;;;13.08;70.49
20930;BME280;21895;47.072;15.132;2023-03-25T08:25:29;96230.00;;;13.03;69.84
20930;BME280;21895;47.072;15.132;2023-03-25T08:27:56;96225.00;;;13.15;68.57
20930;BME280;21895;47.072;15.132;2023-03-25T08:30:23;96227.00;;;12.98;63.67
20930;BME280;21895;47.072;15.132;2023-03-25T08:32:49;96227.00;;;13.00;56.26
20930;BME280;21895;47.072;15.132;2023-03-25T08:35:23;96228.00;;;13.20;55.54
20930;BME280;21895;47.072;15.132;2023-03-25T08:37:50;96225.00;;;13.39;56.72
20930;BME280;21895;47.072;15.132;2023-03-25T08:40:17;96228.00;;;13.54;56.49
20930;BME280;21895;47.072;15.132;2023-03-25T08:42:43;96227.00;;;13.57;56.32
20930;BME280;21895;47.072;15.132;2023-03-25T08:45:10;96235.00;;;13.86;56.08
20930;BME280;21895;47.072;15.132;2023-03-25T08:47:37;96234.00;;;13.94;53.69
20930;BME280;21895;47.072;15.132;2023-03-25T08:50:05;96236.00;;;14.05;52.76
20930;BME280;21895;47.072;15.132;2023-03-25T08:52:31;96230.00;;;13.89;53.19
20930;BME280;21895;47.072;15.132;2023-03-25T08:54:58;96224.00;;;13.89;51.61
20930;BME280;21895;47.072;15.132;2023-03-25T08:57:25;96215.00;;;14.04;52.70
20930;BME280;21895;47.072;15.132;2023-03-25T08:59:51;96206.00;;;14.19;52.53
20930;BME280;21895;47.072;15.132;2023-03-25T09:02:18;96199.00;;;14.34;52.22
20930;BME280;21895;47.072;15.132;2023-03-25T09:04:47;96183.00;;;14.27;50.01
20930;BME280;21895;47.072;15.132;2023-03-25T09:07:14;96177.00;;;14.27;50.82
20930;BME280;21895;47.072;15.132;2023-03-25T09:09:41;96164.00;;;14.45;49.68
20930;BME280;21895;47.072;15.132;2023-03-25T09:12:07;96157.00;;;14.48;47.53
20930;BME280;21895;47.072;15.132;2023-03-25T09:14:34;96150.00;;;14.31;49.02
20930;BME280;21895;47.072;15.132;2023-03-25T09:17:01;96145.00;;;14.07;49.71
20930;BME280;21895;47.072;15.132;2023-03-25T09:19:28;96142.00;;;14.12;49.34
20930;BME280;21895;47.072;15.132;2023-03-25T09:21:54;96136.00;;;13.95;49.96
20930;BME280;21895;47.072;15.132;2023-03-25T09:24:21;96139.00;;;14.05;49.63
20930;BME280;21895;47.072;15.132;2023-03-25T09:26:48;96131.00;;;14.03;49.23
20930;BME280;21895;47.072;15.132;2023-03-25T09:29:14;96124.00;;;14.15;50.86
20930;BME280;21895;47.072;15.132;2023-03-25T09:31:41;96126.00;;;14.29;48.07
20930;BME280;21895;47.072;15.132;2023-03-25T09:34:08;96132.00;;;14.34;48.27
20930;BME280;21895;47.072;15.132;2023-03-25T09:36:34;96140.00;;;14.34;47.21
20930;BME280;21895;47.072;15.132;2023-03-25T09:39:02;96153.00;;;14.45;47.10
20930;BME280;21895;47.072;15.132;2023-03-25T09:46:39;96194.00;;;14.31;48.13
20930;BME280;21895;47.072;15.132;2023-03-25T09:49:18;96230.00;;;14.25;49.16
20930;BME280;21895;47.072;15.132;2023-03-25T09:51:49;96233.00;;;14.36;48.59
20930;BME280;21895;47.072;15.132;2023-03-25T09:54:30;96241.00;;;14.17;47.88
20930;BME280;21895;47.072;15.132;2023-03-25T09:57:07;96234.00;;;13.95;49.21
20930;BME280;21895;47.072;15.132;2023-03-25T09:59:50;96240.00;;;13.79;49.54
20930;BME280;21895;47.072;15.132;2023-03-25T10:09:14;96231.00;;;13.39;50.78
20930;BME280;21895;47.072;15.132;2023-03-25T10:12:15;96231.00;;;13.44;52.78
20930;BME280;21895;47.072;15.132;2023-03-25T10:20:18;96228.00;;;13.39;52.48
20930;BME280;21895;47.072;15.132;2023-03-25T10:25:24;96232.00;;;13.40;53.19
20930;BME280;21895;47.072;15.132;2023-03-25T10:27:53;96236.00;;;13.62;53.36
20930;BME280;21895;47.072;15.132;2023-03-25T10:30:30;96240.00;;;13.86;51.33
20930;BME280;21895;47.072;15.132;2023-03-25T10:33:04;96235.00;;;13.86;51.20
20930;BME280;21895;47.072;15.132;2023-03-25T10:35:39;96231.00;;;14.04;50.38
20930;BME280;21895;47.072;15.132;2023-03-25T10:38:25;96233.00;;;14.05;49.37
20930;BME280;21895;47.072;15.132;2023-03-25T10:41:12;96233.00;;;13.92;49.55
20930;BME280;21895;47.072;15.132;2023-03-25T10:43:42;96231.00;;;13.85;51.48
20930;BME280;21895;47.072;15.132;2023-03-25T10:46:39;96225.00;;;13.98;50.10
20930;BME280;21895;47.072;15.132;2023-03-25T10:49:20;96221.00;;;13.99;50.95
20930;BME280;21895;47.072;15.132;2023-03-25T10:51:50;96210.00;;;14.12;49.68
20930;BME280;21895;47.072;15.132;2023-03-25T10:54:27;96205.00;;;14.28;48.46
20930;BME280;21895;47.072;15.132;2023-03-25T10:57:01;96212.00;;;14.39;49.54
20930;BME280;21895;47.072;15.132;2023-03-25T10:59:36;96221.00;;;14.45;49.63
20930;BME280;21895;47.072;15.132;2023-03-25T11:02:21;96214.00;;;14.58;48.51
20930;BME280;21895;47.072;15.132;2023-03-25T11:04:59;96218.00;;;14.53;48.30
20930;BME280;21895;47.072;15.132;2023-03-25T11:07:34;96221.00;;;14.52;48.78
20930;BME280;21895;47.072;15.132;2023-03-25T11:11:53;96220.00;;;14.61;49.04
20930;BME280;21895;47.072;15.132;2023-03-25T11:14:26;96208.00;;;14.65;48.46
20930;BME280;21895;47.072;15.132;2023-03-25T11:17:06;96218.00;;;14.74;48.26
20930;BME280;21895;47.072;15.132;2023-03-25T11:19:52;96207.00;;;14.70;48.70
20930;BME280;21895;47.072;15.132;2023-03-25T11:22:27;96212.00;;;14.76;48.75
20930;BME280;21895;47.072;15.132;2023-03-25T11:25:12;96201.00;;;14.92;47.23
20930;BME280;21895;47.072;15.132;2023-03-25T11:27:51;96199.00;;;14.74;48.27
20930;BME280;21895;47.072;15.132;2023-03-25T11:30:24;96193.00;;;14.66;48.01
20930;BME280;21895;47.072;15.132;2023-03-25T11:33:11;96195.00;;;14.73;47.59
20930;BME280;21895;47.072;15.132;2023-03-25T11:35:42;96193.00;;;14.72;47.75
20930;BME280;21895;47.072;15.132;2023-03-25T11:38:23;96198.00;;;14.86;47.63
20930;BME280;21895;47.072;15.132;2023-03-25T11:40:58;96192.00;;;14.94;47.62
20930;BME280;21895;47.072;15.132;2023-03-25T11:43:32;96185.00;;;14.90;47.41
20930;BME280;21895;47.072;15.132;2023-03-25T11:46:16;96187.00;;;14.86;48.16
20930;BME280;21895;47.072;15.132;2023-03-25T11:48:45;96185.00;;;15.00;49.03
20930;BME280;21895;47.072;15.132;2023-03-25T11:51:28;96185.00;;;15.16;48.71
20930;BME280;21895;47.072;15.132;2023-03-25T11:54:11;96185.00;;;15.23;47.82
20930;BME280;21895;47.072;15.132;2023-03-25T11:56:41;96176.00;;;15.45;47.60
20930;BME280;21895;47.072;15.132;2023-03-25T12:02:08;96172.00;;;15.62;47.30
20930;BME280;21895;47.072;15.132;2023-03-25T12:05:01;96164.00;;;15.74;46.70
20930;BME280;21895;47.072;15.132;2023-03-25T12:07:43;96158.00;;;15.89;46.25
20930;BME280;21895;47.072;15.132;2023-03-25T12:10:52;96163.00;;;16.16;46.25
20930;BME280;21895;47.072;15.132;2023-03-25T12:22:18;96150.00;;;16.57;45.69
20930;BME280;21895;47.072;15.132;2023-03-25T12:25:17;96138.00;;;16.75;44.64
20930;BME280;21895;47.072;15.132;2023-03-25T12:55:21;96118.00;;;16.35;44.89
20930;BME280;21895;47.072;15.132;2023-03-25T12:58:38;96111.00;;;16.22;45.60
20930;BME280;21895;47.072;15.132;2023-03-25T13:01:36;96104.00;;;16.62;43.36
20930;BME280;21895;47.072;15.132;2023-03-25T13:07:39;96094.00;;;16.99;43.24
20930;BME280;21895;47.072;15.132;2023-03-25T13:10:18;96099.00;;;16.98;42.79
20930;BME280;21895;47.072;15.132;2023-03-25T13:12:56;96099.00;;;16.95;42.78
20930;BME280;21895;47.072;15.132;2023-03-25T13:16:56;96098.00;;;17.10;41.77
20930;BME280;21895;47.072;15.132;2023-03-25T13:19:28;96097.00;;;16.97;41.65
20930;BME280;21895;47.072;15.132;2023-03-25T13:22:06;96084.00;;;16.99;40.56
20930;BME280;21895;47.072;15.132;2023-03-25T13:24:51;96084.00;;;17.23;40.19
20930;BME280;21895;47.072;15.132;2023-03-25T13:27:21;96072.00;;;16.90;41.32
20930;BME280;21895;47.072;15.132;2023-03-25T13:29:56;96071.00;;;17.08;41.16
20930;BME280;21895;47.072;15.132;2023-03-25T13:32:41;96067.00;;;17.10;42.38
20930;BME280;21895;47.072;15.132;2023-03-25T13:37:53;96078.00;;;17.02;42.97
20930;BME280;21895;47.072;15.132;2023-03-25T13:40:42;96075.00;;;16.64;42.63
20930;BME280;21895;47.072;15.132;2023-03-25T13:43:31;96072.00;;;16.53;42.35
20930;BME280;21895;47.072;15.132;2023-03-25T13:46:21;96069.00;;;16.79;41.88
20930;BME280;21895;47.072;15.132;2023-03-25T13:49:11;96059.00;;;16.90;40.85
20930;BME280;21895;47.072;15.132;2023-03-25T13:51:39;96056.00;;;16.74;41.51
20930;BME280;21895;47.072;15.132;2023-03-25T13:55:15;96053.00;;;16.28;43.03
20930;BME280;21895;47.072;15.132;2023-03-25T14:01:16;96052.00;;;16.36;40.99
20930;BME280;21895;47.072;15.132;2023-03-25T14:15:50;96057.00;;;15.91;43.27
20930;BME280;21895;47.072;15.132;2023-03-25T14:18:19;96066.00;;;16.00;43.28
20930;BME280;21895;47.072;15.132;2023-03-25T14:20:47;96063.00;;;16.09;44.48
20930;BME280;21895;47.072;15.132;2023-03-25T14:23:19;96056.00;;;16.26;43.18
20930;BME280;21895;47.072;15.132;2023-03-25T14:25:55;96051.00;;;16.27;42.96
20930;BME280;21895;47.072;15.132;2023-03-25T14:28:42;96046.00;;;16.23;42.83
20930;BME280;21895;47.072;15.132;2023-03-25T14:32:01;96041.00;;;16.31;42.84
20930;BME280;21895;47.072;15.132;2023-03-25T14:34:28;96039.00;;;16.16;43.80
20930;BME280;21895;47.072;15.132;2023-03-25T14:37:25;96035.00;;;16.17;43.48
20930;BME280;21895;47.072;15.132;2023-03-25T14:40:01;96030.00;;;16.00;44.22
20930;BME280;21895;47.072;15.132;2023-03-25T14:43:38;96035.00;;;15.99;43.77
20930;BME280;21895;47.072;15.132;2023-03-25T14:46:33;96043.00;;;16.32;42.59
20930;BME280;21895;47.072;15.132;2023-03-25T14:49:23;96036.00;;;16.36;42.72
20930;BME280;21895;47.072;15.132;2023-03-25T14:51:58;96035.00;;;16.37;43.80
20930;BME280;21895;47.072;15.132;2023-03-25T14:54:33;96026.00;;;16.62;43.68
20930;BME280;21895;47.072;15.132;2023-03-25T14:57:17;96020.00;;;16.89;42.38
20930;BME280;21895;47.072;15.132;2023-03-25T15:00:00;96014.00;;;17.21;41.82
20930;BME280;21895;47.072;15.132;2023-03-25T15:02:31;96025.00;;;17.15;41.09
20930;BME280;21895;47.072;15.132;2023-03-25T15:05:11;96020.00;;;17.27;41.52
20930;BME280;21895;47.072;15.132;2023-03-25T15:08:23;96018.00;;;17.07;41.92
20930;BME280;21895;47.072;15.132;2023-03-25T15:11:08;96005.00;;;16.69;42.52
20930;BME280;21895;47.072;15.132;2023-03-25T15:13:50;96007.00;;;16.57;43.23
20930;BME280;21895;47.072;15.132;2023-03-25T15:17:04;96004.00;;;16.76;42.12
20930;BME280;21895;47.072;15.132;2023-03-25T15:26:37;95998.00;;;16.60;40.82